createdAt,value
2017-11-16T00:00:17.284Z,23.87
2017-11-16T00:02:19.977Z,25.07
2017-11-16T00:04:22.631Z,25.00
2017-11-16T00:06:25.300Z,25.37
2017-11-16T00:08:27.991Z,24.70
2017-11-16T00:10:30.638Z,25.10
2017-11-16T00:12:33.335Z,25.60
2017-11-16T00:14:35.990Z,27.20
2017-11-16T00:16:38.836Z,28.00
2017-11-16T00:18:42.270Z,25.40
2017-11-16T00:20:44.936Z,27.43
2017-11-16T00:22:48.384Z,27.07
2017-11-16T00:24:51.055Z,28.57
2017-11-16T00:26:53.700Z,28.20
2017-11-16T00:28:56.386Z,27.73
2017-11-16T00:30:59.030Z,28.20
2017-11-16T00:33:01.707Z,29.37
2017-11-16T00:35:04.361Z,28.50
2017-11-16T00:37:07.909Z,28.43
2017-11-16T00:39:10.592Z,30.43
2017-11-16T00:41:13.243Z,29.80
2017-11-16T00:43:15.924Z,29.57
2017-11-16T00:45:18.562Z,29.77
2017-11-16T00:47:22.004Z,29.87
2017-11-16T00:49:24.645Z,30.60
2017-11-16T00:51:27.293Z,30.60
2017-11-16T00:53:30.729Z,30.57
2017-11-16T00:55:33.387Z,30.43
2017-11-16T00:57:36.075Z,31.17
2017-11-16T00:59:39.135Z,28.23
2017-11-16T01:01:42.570Z,29.47
2017-11-16T01:03:45.261Z,28.73
2017-11-16T01:05:47.922Z,29.87
2017-11-16T01:07:50.601Z,28.47
2017-11-16T01:09:53.258Z,31.30
2017-11-16T01:11:55.903Z,29.87
2017-11-16T01:13:59.454Z,28.50
2017-11-16T01:16:02.126Z,29.30
2017-11-16T01:18:04.796Z,29.37
2017-11-16T01:20:07.463Z,29.17
2017-11-16T01:22:10.117Z,30.23
2017-11-16T01:24:13.569Z,29.63
2017-11-16T01:26:16.240Z,29.00
2017-11-16T01:28:18.915Z,28.73
2017-11-16T01:30:21.565Z,28.30
2017-11-16T01:32:24.255Z,27.97
2017-11-16T01:34:26.914Z,27.80
2017-11-16T01:36:29.565Z,25.93
2017-11-16T01:38:33.002Z,27.87
2017-11-16T01:40:35.684Z,26.80
2017-11-16T01:42:38.555Z,27.17
2017-11-16T01:44:41.238Z,28.30
2017-11-16T01:46:43.916Z,27.20
2017-11-16T01:48:46.608Z,29.33
2017-11-16T01:50:49.262Z,27.70
2017-11-16T01:52:51.943Z,27.10
2017-11-16T01:54:54.611Z,27.27
2017-11-16T01:56:57.267Z,27.57
2017-11-16T01:59:00.152Z,28.60
2017-11-16T02:01:02.835Z,27.50
2017-11-16T02:03:05.505Z,29.00
2017-11-16T02:05:08.225Z,26.60
2017-11-16T02:07:10.924Z,27.40
2017-11-16T02:09:14.373Z,27.53
2017-11-16T02:11:17.071Z,27.80
2017-11-16T02:13:19.734Z,29.10
2017-11-16T02:15:22.406Z,27.10
2017-11-16T02:17:25.108Z,25.97
2017-11-16T02:19:27.799Z,26.93
2017-11-16T02:21:31.282Z,25.43
2017-11-16T02:23:34.020Z,25.70
2017-11-16T02:25:36.703Z,25.60
2017-11-16T02:27:39.383Z,24.37
2017-11-16T02:29:42.114Z,24.93
2017-11-16T02:31:45.573Z,24.43
2017-11-16T02:33:48.570Z,25.30
2017-11-16T02:35:51.299Z,25.73
2017-11-16T02:37:53.982Z,26.20
2017-11-16T02:39:56.675Z,26.60
2017-11-16T02:41:59.393Z,26.97
2017-11-16T02:44:02.970Z,26.70
2017-11-16T02:46:06.410Z,27.87
2017-11-16T02:48:09.165Z,27.70
2017-11-16T02:50:12.628Z,28.40
2017-11-16T02:52:15.318Z,27.23
2017-11-16T02:54:18.059Z,28.63
2017-11-16T02:56:20.727Z,29.40
2017-11-16T02:58:23.424Z,29.90
2017-11-16T03:00:26.151Z,30.43
2017-11-16T03:02:29.630Z,30.00
2017-11-16T03:04:33.048Z,30.80
2017-11-16T03:06:35.751Z,29.50
2017-11-16T03:08:38.412Z,30.70
2017-11-16T03:10:41.206Z,32.83
2017-11-16T03:12:43.873Z,30.90
2017-11-16T03:14:46.575Z,31.03
2017-11-16T03:16:49.248Z,30.90
2017-11-16T03:18:51.907Z,30.10
2017-11-16T03:20:54.540Z,30.87
2017-11-16T03:22:58.175Z,31.90
2017-11-16T03:25:00.856Z,31.90
2017-11-16T03:27:03.585Z,31.27
2017-11-16T03:29:07.052Z,30.40
2017-11-16T03:31:09.716Z,31.30
2017-11-16T03:33:12.390Z,30.20
2017-11-16T03:35:15.081Z,32.07
2017-11-16T03:37:17.810Z,32.20
2017-11-16T03:39:20.533Z,31.83
2017-11-16T03:41:23.174Z,28.90
2017-11-16T03:43:25.855Z,30.00
2017-11-16T03:45:28.527Z,28.50
2017-11-16T03:47:31.224Z,30.47
2017-11-16T03:49:33.905Z,28.10
2017-11-16T03:51:36.608Z,30.20
2017-11-16T03:53:39.316Z,29.70
2017-11-16T03:55:41.983Z,27.67
2017-11-16T03:57:45.450Z,28.93
2017-11-16T03:59:48.182Z,29.47
2017-11-16T04:01:50.835Z,28.40
2017-11-16T04:03:53.523Z,26.90
2017-11-16T04:05:56.184Z,27.60
2017-11-16T04:07:59.632Z,26.00
2017-11-16T04:10:02.278Z,28.27
2017-11-16T04:12:04.989Z,27.57
2017-11-16T04:14:07.649Z,30.13
2017-11-16T04:16:10.347Z,26.67
2017-11-16T04:18:13.113Z,26.73
2017-11-16T04:20:15.809Z,27.63
2017-11-16T04:22:18.608Z,26.80
2017-11-16T04:24:22.090Z,28.23
2017-11-16T04:26:24.831Z,25.67
2017-11-16T04:28:27.529Z,26.37
2017-11-16T04:30:30.208Z,26.53
2017-11-16T04:32:32.911Z,24.37
2017-11-16T04:34:35.602Z,25.90
2017-11-16T04:36:39.128Z,26.27
2017-11-16T04:38:41.930Z,24.50
2017-11-16T04:40:44.591Z,22.90
2017-11-16T04:42:47.266Z,22.90
2017-11-16T04:44:49.909Z,22.70
2017-11-16T04:46:53.368Z,22.20
2017-11-16T04:48:56.034Z,23.67
2017-11-16T04:50:58.696Z,23.77
2017-11-16T04:53:01.374Z,23.90
2017-11-16T04:55:04.460Z,21.20
2017-11-16T04:57:07.122Z,23.37
2017-11-16T04:59:09.783Z,22.50
2017-11-16T05:01:13.253Z,22.33
2017-11-16T05:03:15.915Z,23.30
2017-11-16T05:05:18.578Z,24.10
2017-11-16T05:07:21.289Z,24.37
2017-11-16T05:09:24.696Z,23.47
2017-11-16T05:11:28.129Z,23.73
2017-11-16T05:13:30.842Z,23.37
2017-11-16T05:15:33.506Z,23.20
2017-11-16T05:17:36.178Z,23.93
2017-11-16T05:19:38.959Z,23.30
2017-11-16T05:21:41.621Z,22.70
2017-11-16T05:23:44.356Z,23.10
2017-11-16T05:25:57.311Z,24.40
2017-11-16T05:28:17.962Z,23.57
2017-11-16T05:30:20.786Z,22.73
2017-11-16T05:32:23.449Z,22.70
2017-11-16T05:34:26.098Z,22.67
2017-11-16T05:36:29.548Z,24.23
2017-11-16T05:38:32.238Z,23.27
2017-11-16T05:40:34.919Z,24.53
2017-11-16T05:42:37.600Z,25.60
2017-11-16T05:44:40.296Z,24.13
2017-11-16T05:46:43.741Z,24.40
2017-11-16T05:48:46.421Z,23.67
2017-11-16T05:50:49.891Z,24.23
2017-11-16T05:52:52.659Z,23.47
2017-11-16T05:54:56.648Z,25.80
2017-11-16T05:56:59.379Z,24.63
2017-11-16T05:59:02.216Z,25.20
2017-11-16T06:01:04.923Z,24.40
2017-11-16T06:03:07.601Z,26.57
2017-11-16T06:05:10.284Z,25.70
2017-11-16T06:07:13.008Z,26.43
2017-11-16T06:09:18.550Z,26.97
2017-11-16T06:11:21.293Z,25.93
2017-11-16T06:13:23.992Z,25.97
2017-11-16T06:15:26.646Z,25.33
2017-11-16T06:17:29.327Z,25.30
2017-11-16T06:19:31.999Z,25.33
2017-11-16T06:21:35.354Z,25.13
2017-11-16T06:23:38.024Z,26.70
2017-11-16T06:25:40.685Z,25.33
2017-11-16T06:27:43.338Z,23.80
2017-11-16T06:29:46.015Z,24.00
2017-11-16T06:31:48.658Z,24.50
2017-11-16T06:33:51.359Z,24.10
2017-11-16T06:35:54.003Z,23.13
2017-11-16T06:37:56.673Z,25.60
2017-11-16T06:39:59.351Z,25.80
2017-11-16T06:42:02.145Z,25.13
2017-11-16T06:44:04.829Z,23.17
2017-11-16T06:46:07.505Z,24.33
2017-11-16T06:48:10.245Z,23.57
2017-11-16T06:50:12.987Z,23.40
2017-11-16T06:52:16.421Z,22.73
2017-11-16T06:54:19.482Z,23.23
2017-11-16T06:56:22.155Z,21.53
2017-11-16T06:58:25.592Z,23.00
2017-11-16T07:00:28.276Z,24.70
2017-11-16T07:02:30.922Z,22.43
2017-11-16T07:04:33.603Z,24.37
2017-11-16T07:06:36.267Z,23.13
2017-11-16T07:08:38.964Z,22.87
2017-11-16T07:10:41.632Z,23.17
2017-11-16T07:12:44.291Z,22.20
2017-11-16T07:14:46.981Z,20.03
2017-11-16T07:16:49.656Z,20.57
2017-11-16T07:18:52.411Z,18.40
2017-11-16T07:20:55.836Z,16.50
2017-11-16T07:22:58.487Z,16.93
2017-11-16T07:25:01.928Z,16.73
2017-11-16T07:27:05.740Z,15.50
2017-11-16T07:29:08.516Z,16.60
2017-11-16T07:31:11.191Z,16.63
2017-11-16T07:33:13.884Z,17.00
2017-11-16T07:35:16.756Z,16.43
2017-11-16T07:37:19.441Z,14.50
2017-11-16T07:39:22.112Z,14.93
2017-11-16T07:41:24.881Z,15.07
2017-11-16T07:43:27.690Z,14.20
2017-11-16T07:45:32.162Z,13.40
2017-11-16T07:47:34.923Z,15.37
2017-11-16T07:49:38.053Z,15.00
2017-11-16T07:51:40.776Z,14.23
2017-11-16T07:53:43.505Z,13.20
2017-11-16T07:55:46.163Z,13.43
2017-11-16T07:57:48.857Z,13.00
2017-11-16T07:59:51.562Z,12.33
2017-11-16T08:01:54.216Z,12.70
2017-11-16T08:03:56.940Z,12.00
2017-11-16T08:05:59.740Z,13.40
2017-11-16T08:08:02.432Z,13.90
2017-11-16T08:10:05.090Z,13.73
2017-11-16T08:12:07.780Z,13.50
2017-11-16T08:14:10.442Z,14.37
2017-11-16T08:16:13.131Z,13.80
2017-11-16T08:18:15.782Z,15.03
2017-11-16T08:20:18.457Z,14.33
2017-11-16T08:22:21.126Z,15.80
2017-11-16T08:24:23.817Z,15.57
2017-11-16T08:26:26.583Z,16.13
2017-11-16T08:28:29.255Z,17.83
2017-11-16T08:30:31.902Z,18.93
2017-11-16T08:32:35.351Z,20.17
2017-11-16T08:34:38.000Z,18.13
2017-11-16T08:36:40.685Z,19.97
2017-11-16T08:38:43.374Z,21.00
2017-11-16T08:40:46.045Z,20.60
2017-11-16T08:42:48.854Z,20.33
2017-11-16T08:44:51.562Z,20.30
2017-11-16T08:46:54.294Z,21.27
2017-11-16T08:48:57.029Z,19.67
2017-11-16T08:50:59.753Z,20.27
2017-11-16T08:53:02.464Z,20.80
2017-11-16T08:55:05.952Z,20.93
2017-11-16T08:57:09.433Z,22.07
2017-11-16T08:59:12.133Z,21.30
2017-11-16T09:01:15.613Z,20.73
2017-11-16T09:03:18.333Z,19.60
2017-11-16T09:05:21.112Z,19.67
2017-11-16T09:07:23.805Z,20.83
2017-11-16T09:09:26.500Z,19.17
2017-11-16T09:11:29.192Z,19.53
2017-11-16T09:13:31.987Z,20.07
2017-11-16T09:15:34.703Z,20.00
2017-11-16T09:17:37.409Z,19.00
2017-11-16T09:19:40.141Z,18.57
2017-11-16T09:21:42.853Z,19.50
2017-11-16T09:23:45.543Z,20.20
2017-11-16T09:25:48.250Z,19.93
2017-11-16T09:27:51.689Z,20.67
2017-11-16T09:29:54.542Z,19.13
2017-11-16T09:31:57.250Z,19.00
2017-11-16T09:33:59.953Z,19.63
2017-11-16T09:36:03.441Z,18.67
2017-11-16T09:38:06.100Z,20.13
2017-11-16T09:40:08.859Z,18.87
2017-11-16T09:42:11.540Z,20.20
2017-11-16T09:44:14.258Z,19.80
2017-11-16T09:46:16.986Z,20.40
2017-11-16T09:48:19.665Z,21.40
2017-11-16T09:50:22.377Z,20.70
2017-11-16T09:52:25.073Z,20.93
2017-11-16T09:54:28.621Z,20.43
2017-11-16T09:56:31.325Z,20.50
2017-11-16T09:58:34.807Z,21.80
2017-11-16T10:00:37.505Z,19.90
2017-11-16T10:02:40.177Z,21.20
2017-11-16T10:04:42.852Z,19.10
2017-11-16T10:06:45.593Z,19.53
2017-11-16T10:08:48.243Z,21.23
2017-11-16T10:10:55.670Z,20.50
2017-11-16T10:12:58.323Z,19.10
2017-11-16T10:15:01.031Z,21.20
2017-11-16T10:17:03.707Z,20.20
2017-11-16T10:19:06.375Z,20.93
2017-11-16T10:21:09.049Z,21.80
2017-11-16T10:23:11.727Z,21.53
2017-11-16T10:25:14.439Z,22.23
2017-11-16T10:27:17.107Z,21.00
2017-11-16T10:29:19.836Z,20.67
2017-11-16T10:31:22.528Z,21.30
2017-11-16T10:33:25.222Z,21.40
2017-11-16T10:35:27.910Z,20.37
2017-11-16T10:37:30.566Z,20.60
2017-11-16T10:39:33.212Z,20.10
2017-11-16T10:41:36.017Z,20.90
2017-11-16T10:43:38.693Z,20.80
2017-11-16T10:45:41.459Z,21.10
2017-11-16T10:47:44.130Z,20.67
2017-11-16T10:49:46.936Z,19.77
2017-11-16T10:51:49.624Z,20.07
2017-11-16T10:53:52.295Z,19.97
2017-11-16T10:55:54.981Z,18.10
2017-11-16T10:57:57.836Z,20.57
2017-11-16T11:00:00.833Z,19.77
2017-11-16T11:02:03.790Z,19.30
2017-11-16T11:04:06.464Z,18.70
2017-11-16T11:06:09.135Z,19.87
2017-11-16T11:08:11.805Z,19.13
2017-11-16T11:10:14.489Z,18.87
2017-11-16T11:12:17.144Z,17.07
2017-11-16T11:14:19.806Z,18.13
2017-11-16T11:16:23.263Z,17.73
2017-11-16T11:18:25.947Z,18.73
2017-11-16T11:20:28.690Z,17.33
2017-11-16T11:22:31.357Z,18.40
2017-11-16T11:24:34.035Z,19.30
2017-11-16T11:26:36.755Z,18.63
2017-11-16T11:28:39.745Z,16.87
2017-11-16T11:30:42.635Z,17.80
2017-11-16T11:32:45.313Z,17.13
2017-11-16T11:34:47.966Z,16.77
2017-11-16T11:36:50.621Z,18.40
2017-11-16T11:38:53.351Z,17.50
2017-11-16T11:40:56.798Z,17.50
2017-11-16T11:43:01.645Z,17.17
2017-11-16T11:45:04.375Z,16.67
2017-11-16T11:47:07.297Z,16.37
2017-11-16T11:49:10.816Z,17.77
2017-11-16T11:51:13.585Z,17.07
2017-11-16T11:53:16.251Z,16.67
2017-11-16T11:55:18.919Z,16.43
2017-11-16T11:57:21.597Z,16.83
2017-11-16T11:59:24.282Z,16.90
2017-11-16T12:01:26.961Z,17.00
2017-11-16T12:03:29.631Z,18.73
2017-11-16T12:05:32.420Z,18.30
2017-11-16T12:07:35.867Z,16.97
2017-11-16T12:09:38.546Z,16.80
2017-11-16T12:11:41.186Z,17.40
2017-11-16T12:13:43.846Z,18.13
2017-11-16T12:15:46.525Z,16.60
2017-11-16T12:17:49.178Z,17.23
2017-11-16T12:19:51.874Z,17.70
2017-11-16T12:21:54.537Z,17.30
2017-11-16T12:23:57.223Z,17.67
2017-11-16T12:25:59.949Z,16.70
2017-11-16T12:28:03.377Z,17.40
2017-11-16T12:30:06.100Z,17.23
2017-11-16T12:32:09.530Z,15.20
2017-11-16T12:34:12.265Z,16.80
2017-11-16T12:36:15.729Z,16.30
2017-11-16T12:38:18.446Z,18.27
2017-11-16T12:40:22.386Z,17.27
2017-11-16T12:42:25.231Z,16.40
2017-11-16T12:44:28.467Z,16.20
2017-11-16T12:46:31.399Z,16.00
2017-11-16T12:48:36.233Z,16.70
2017-11-16T12:50:39.870Z,16.90
2017-11-16T12:52:42.696Z,16.10
2017-11-16T12:54:45.414Z,17.30
2017-11-16T12:56:48.117Z,18.27
2017-11-16T12:58:50.782Z,17.70
2017-11-16T13:00:53.785Z,17.23
2017-11-16T13:02:56.477Z,17.63
2017-11-16T13:04:59.296Z,16.37
2017-11-16T13:07:03.061Z,17.30
2017-11-16T13:09:05.729Z,17.60
2017-11-16T13:11:08.424Z,16.33
2017-11-16T13:13:11.898Z,17.17
2017-11-16T13:15:14.609Z,16.47
2017-11-16T13:17:18.859Z,15.73
2017-11-16T13:19:21.662Z,16.83
2017-11-16T13:21:24.360Z,17.90
2017-11-16T13:23:28.485Z,16.90
2017-11-16T13:25:31.297Z,17.60
2017-11-16T13:27:34.078Z,18.10
2017-11-16T13:29:36.785Z,17.70
2017-11-16T13:31:39.610Z,18.50
2017-11-16T13:33:42.920Z,17.77
2017-11-16T13:35:45.619Z,18.10
2017-11-16T13:37:48.771Z,17.40
2017-11-16T13:39:51.563Z,17.37
2017-11-16T13:41:54.562Z,18.73
2017-11-16T13:43:57.262Z,18.03
2017-11-16T13:45:59.910Z,19.43
2017-11-16T13:48:02.610Z,17.20
2017-11-16T13:50:05.481Z,18.80
2017-11-16T13:52:08.133Z,19.97
2017-11-16T13:54:10.832Z,19.63
2017-11-16T13:56:13.499Z,19.30
2017-11-16T13:58:16.158Z,21.63
2017-11-16T14:00:18.845Z,19.97
2017-11-16T14:02:21.529Z,19.63
2017-11-16T14:04:24.193Z,19.30
2017-11-16T14:06:26.888Z,21.30
2017-11-16T14:08:29.601Z,21.10
2017-11-16T14:10:32.267Z,22.63
2017-11-16T14:12:34.958Z,22.00
2017-11-16T14:14:38.372Z,22.70
2017-11-16T14:16:41.170Z,21.40
2017-11-16T14:18:43.967Z,22.10
2017-11-16T14:20:47.656Z,23.33
2017-11-16T14:22:50.429Z,22.60
2017-11-16T14:24:53.411Z,22.83
2017-11-16T14:26:56.198Z,23.80
2017-11-16T14:28:58.964Z,22.60
2017-11-16T14:31:01.669Z,21.40
2017-11-16T14:33:04.338Z,23.83
2017-11-16T14:35:07.488Z,22.00
2017-11-16T14:37:10.907Z,20.53
2017-11-16T14:39:13.588Z,19.30
2017-11-16T14:41:16.293Z,17.47
2017-11-16T14:43:19.724Z,15.10
2017-11-16T14:45:22.440Z,14.00
2017-11-16T14:47:25.122Z,14.03
2017-11-16T14:49:28.152Z,13.10
2017-11-16T14:51:31.615Z,12.80
2017-11-16T14:53:34.289Z,12.10
2017-11-16T14:55:36.943Z,12.10
2017-11-16T14:57:39.704Z,12.53
2017-11-16T14:59:42.484Z,12.50
2017-11-16T15:01:45.312Z,12.37
2017-11-16T15:03:47.955Z,13.40
2017-11-16T15:05:51.220Z,14.30
2017-11-16T15:07:53.932Z,12.20
2017-11-16T15:09:56.607Z,11.80
2017-11-16T15:11:59.297Z,12.67
2017-11-16T15:14:01.943Z,13.40
2017-11-16T15:16:04.672Z,12.13
2017-11-16T15:18:08.112Z,12.67
2017-11-16T15:20:10.861Z,12.00
2017-11-16T15:22:14.352Z,13.83
2017-11-16T15:24:17.818Z,13.00
2017-11-16T15:26:20.502Z,13.90
2017-11-16T15:28:23.200Z,13.30
2017-11-16T15:30:26.629Z,13.80
2017-11-16T15:32:29.759Z,13.53
2017-11-16T15:34:32.429Z,15.07
2017-11-16T15:36:35.167Z,13.77
2017-11-16T15:38:37.858Z,13.63
2017-11-16T15:40:40.525Z,13.77
2017-11-16T15:42:43.191Z,13.83
2017-11-16T15:44:45.855Z,13.70
2017-11-16T15:46:48.531Z,12.90
2017-11-16T15:48:51.205Z,14.10
2017-11-16T15:50:53.897Z,14.70
2017-11-16T15:52:56.677Z,13.87
2017-11-16T15:54:59.330Z,14.13
2017-11-16T15:57:02.019Z,13.30
2017-11-16T15:59:04.666Z,13.53
2017-11-16T16:01:08.078Z,13.67
2017-11-16T16:03:10.773Z,13.30
2017-11-16T16:05:13.524Z,14.93
2017-11-16T16:07:16.236Z,15.07
2017-11-16T16:09:19.104Z,15.27
2017-11-16T16:11:21.991Z,15.50
2017-11-16T16:13:24.669Z,15.30
2017-11-16T16:15:27.350Z,15.83
2017-11-16T16:17:30.080Z,17.13
2017-11-16T16:19:33.513Z,16.97
2017-11-16T16:21:36.174Z,17.43
2017-11-16T16:23:38.860Z,16.37
2017-11-16T16:25:41.512Z,16.77
2017-11-16T16:27:44.219Z,18.00
2017-11-16T16:29:46.874Z,20.30
2017-11-16T16:31:49.563Z,18.37
2017-11-16T16:33:52.245Z,17.80
2017-11-16T16:35:55.164Z,16.77
2017-11-16T16:37:57.848Z,17.70
2017-11-16T16:40:00.516Z,17.93
2017-11-16T16:42:03.187Z,19.50
2017-11-16T16:44:06.646Z,19.67
2017-11-16T16:46:09.302Z,20.43
2017-11-16T16:48:12.014Z,21.43
2017-11-16T16:50:14.710Z,21.27
2017-11-16T16:52:17.394Z,22.40
2017-11-16T16:54:20.076Z,20.00
2017-11-16T16:56:22.773Z,20.13
2017-11-16T16:58:26.301Z,20.77
2017-11-16T17:00:28.961Z,20.47
2017-11-16T17:02:31.634Z,20.67
2017-11-16T17:04:34.322Z,21.87
2017-11-16T17:06:36.973Z,22.13
2017-11-16T17:08:40.419Z,20.67
2017-11-16T17:10:43.089Z,23.03
2017-11-16T17:12:45.790Z,22.43
2017-11-16T17:14:48.467Z,22.87
2017-11-16T17:16:51.130Z,22.97
2017-11-16T17:18:53.822Z,23.30
2017-11-16T17:20:56.475Z,25.20
2017-11-16T17:22:59.167Z,23.00
2017-11-16T17:25:01.808Z,23.50
2017-11-16T17:27:04.463Z,26.00
2017-11-16T17:29:07.751Z,25.63
2017-11-16T17:31:10.478Z,25.70
2017-11-16T17:33:13.143Z,26.07
2017-11-16T17:35:15.853Z,27.27
2017-11-16T17:37:18.530Z,28.27
2017-11-16T17:39:21.256Z,29.60
2017-11-16T17:41:24.233Z,28.90
2017-11-16T17:43:26.916Z,30.63
2017-11-16T17:45:29.693Z,30.10
2017-11-16T17:47:32.387Z,32.10
2017-11-16T17:49:35.087Z,35.20
2017-11-16T17:51:37.790Z,35.00
2017-11-16T17:53:41.231Z,31.20
2017-11-16T17:55:43.897Z,31.07
2017-11-16T17:57:46.575Z,31.60
2017-11-16T17:59:49.277Z,31.17
2017-11-16T18:01:51.941Z,33.13
2017-11-16T18:03:54.615Z,31.40
2017-11-16T18:05:57.270Z,35.23
2017-11-16T18:07:59.934Z,36.90
2017-11-16T18:10:02.658Z,36.60
2017-11-16T18:12:05.331Z,36.17
2017-11-16T18:14:08.033Z,35.93
2017-11-16T18:16:10.695Z,36.50
2017-11-16T18:18:13.372Z,37.50
2017-11-16T18:20:16.014Z,37.83
2017-11-16T18:22:18.685Z,37.43
2017-11-16T18:24:21.351Z,37.57
2017-11-16T18:26:24.118Z,37.17
2017-11-16T18:28:27.050Z,38.30
2017-11-16T18:30:29.727Z,39.17
2017-11-16T18:32:32.391Z,37.67
2017-11-16T18:34:35.080Z,37.23
2017-11-16T18:36:37.776Z,39.70
2017-11-16T18:38:40.446Z,35.47
2017-11-16T18:40:44.733Z,36.23
2017-11-16T18:42:47.382Z,38.03
2017-11-16T18:44:50.073Z,38.97
2017-11-16T18:46:52.735Z,39.07
2017-11-16T18:48:55.424Z,39.23
2017-11-16T18:50:58.096Z,40.97
2017-11-16T18:53:00.914Z,36.80
2017-11-16T18:55:03.864Z,39.53
2017-11-16T18:57:06.673Z,38.40
2017-11-16T18:59:09.427Z,39.27
2017-11-16T19:01:12.081Z,42.37
2017-11-16T19:03:14.765Z,39.03
2017-11-16T19:05:18.794Z,42.30
2017-11-16T19:07:22.257Z,39.93
2017-11-16T19:09:25.028Z,40.67
2017-11-16T19:11:28.491Z,41.00
2017-11-16T19:13:31.263Z,43.70
2017-11-16T19:15:33.998Z,43.43
2017-11-16T19:17:37.625Z,41.13
2017-11-16T19:19:40.700Z,37.83
2017-11-16T19:21:43.345Z,40.27
2017-11-16T19:23:46.827Z,36.63
2017-11-16T19:25:50.274Z,38.57
2017-11-16T19:27:53.245Z,40.13
2017-11-16T19:29:55.910Z,38.57
2017-11-16T19:31:58.573Z,38.60
2017-11-16T19:34:01.287Z,39.80
2017-11-16T19:36:03.957Z,42.30
2017-11-16T19:38:06.746Z,41.23
2017-11-16T19:40:09.409Z,39.20
2017-11-16T19:42:12.179Z,39.00
2017-11-16T19:44:14.846Z,40.43
2017-11-16T19:46:17.503Z,39.07
2017-11-16T19:48:20.183Z,41.13
2017-11-16T19:50:22.849Z,42.70
2017-11-16T19:52:26.407Z,42.00
2017-11-16T19:54:29.083Z,40.53
2017-11-16T19:56:31.731Z,39.63
2017-11-16T19:58:34.488Z,38.93
2017-11-16T20:00:37.153Z,39.40
2017-11-16T20:02:40.597Z,40.90
2017-11-16T20:04:43.278Z,37.23
2017-11-16T20:06:45.928Z,39.20
2017-11-16T20:08:48.937Z,38.20
2017-11-16T20:10:51.694Z,37.17
2017-11-16T20:12:54.352Z,36.47
2017-11-16T20:14:58.088Z,39.53
2017-11-16T20:17:00.758Z,38.30
2017-11-16T20:19:03.438Z,38.13
2017-11-16T20:21:06.084Z,40.20
2017-11-16T20:23:08.866Z,39.70
2017-11-16T20:25:11.565Z,37.50
2017-11-16T20:27:14.329Z,38.30
2017-11-16T20:29:17.038Z,39.07
2017-11-16T20:31:19.695Z,36.60
2017-11-16T20:33:22.464Z,38.57
2017-11-16T20:35:25.137Z,37.27
2017-11-16T20:37:33.634Z,39.53
2017-11-16T20:39:42.097Z,41.37
2017-11-16T20:41:50.592Z,38.60
2017-11-16T20:43:59.016Z,37.10
2017-11-16T20:46:04.262Z,37.87
2017-11-16T20:48:23.799Z,36.40
2017-11-16T20:50:32.101Z,37.10
2017-11-16T20:52:40.669Z,37.70
2017-11-16T20:54:43.341Z,38.00
2017-11-16T20:56:46.071Z,37.50
2017-11-16T20:58:48.878Z,38.33
2017-11-16T21:00:51.591Z,39.70
2017-11-16T21:02:55.034Z,37.77
2017-11-16T21:04:57.692Z,40.00
2017-11-16T21:07:00.438Z,39.77
2017-11-16T21:09:03.899Z,41.43
2017-11-16T21:11:06.674Z,38.87
2017-11-16T21:13:09.340Z,41.40
2017-11-16T21:15:12.338Z,41.50
2017-11-16T21:17:15.014Z,43.00
2017-11-16T21:19:17.666Z,43.13
2017-11-16T21:21:20.383Z,42.73
2017-11-16T21:23:23.836Z,41.03
2017-11-16T21:25:26.718Z,41.90
2017-11-16T21:27:29.560Z,41.17
2017-11-16T21:29:33.187Z,41.70
2017-11-16T21:31:35.875Z,40.23
2017-11-16T21:33:38.761Z,41.10
2017-11-16T21:35:41.426Z,40.30
2017-11-16T21:37:44.094Z,40.63
2017-11-16T21:39:46.754Z,42.20
2017-11-16T21:41:49.439Z,41.40
2017-11-16T21:43:52.108Z,42.70
2017-11-16T21:45:54.765Z,44.90
2017-11-16T21:47:58.235Z,42.93
2017-11-16T21:50:00.892Z,46.97
2017-11-16T21:52:03.675Z,43.47
2017-11-16T21:54:06.336Z,44.30
2017-11-16T21:56:09.041Z,48.50
2017-11-16T21:58:11.707Z,43.27
2017-11-16T22:00:14.456Z,45.13
2017-11-16T22:02:17.177Z,43.50
2017-11-16T22:04:19.860Z,46.90
2017-11-16T22:06:23.297Z,48.60
2017-11-16T22:08:26.003Z,53.80
2017-11-16T22:10:28.661Z,51.80
2017-11-16T22:12:31.434Z,52.73
2017-11-16T22:14:34.210Z,55.80
2017-11-16T22:16:36.914Z,58.90
2017-11-16T22:18:39.666Z,54.23
2017-11-16T22:20:42.332Z,55.33
2017-11-16T22:22:45.010Z,51.57
2017-11-16T22:24:47.778Z,53.97
2017-11-16T22:26:50.454Z,58.10
2017-11-16T22:28:53.117Z,61.60
2017-11-16T22:30:56.557Z,61.60
2017-11-16T22:32:59.340Z,62.00
2017-11-16T22:35:02.073Z,57.40
2017-11-16T22:37:05.515Z,59.13
2017-11-16T22:39:08.173Z,58.77
2017-11-16T22:41:10.830Z,56.67
2017-11-16T22:43:13.506Z,53.50
2017-11-16T22:45:16.177Z,54.00
2017-11-16T22:47:18.855Z,53.23
2017-11-16T22:49:21.523Z,52.57
2017-11-16T22:51:24.971Z,52.80
2017-11-16T22:53:27.621Z,55.60
2017-11-16T22:55:30.292Z,51.30
2017-11-16T22:57:32.963Z,55.67
2017-11-16T22:59:35.668Z,55.07
2017-11-16T23:01:38.365Z,54.87
2017-11-16T23:03:41.028Z,56.13
2017-11-16T23:05:43.686Z,58.37
2017-11-16T23:07:46.369Z,55.97
2017-11-16T23:09:49.035Z,57.00
2017-11-16T23:11:51.716Z,55.13
2017-11-16T23:13:54.389Z,56.93
2017-11-16T23:15:57.162Z,56.43
2017-11-16T23:17:59.844Z,57.70
2017-11-16T23:20:02.516Z,55.90
2017-11-16T23:22:05.202Z,54.50
2017-11-16T23:24:07.878Z,55.30
2017-11-16T23:26:10.555Z,55.13
2017-11-16T23:28:13.233Z,55.30
2017-11-16T23:30:15.971Z,53.17
2017-11-16T23:32:19.817Z,55.53
2017-11-16T23:34:22.469Z,55.97
2017-11-16T23:36:25.251Z,55.60
2017-11-16T23:38:27.938Z,53.17
2017-11-16T23:40:30.612Z,53.17
2017-11-16T23:42:33.292Z,54.70
2017-11-16T23:44:36.116Z,55.73
2017-11-16T23:46:39.580Z,58.60
2017-11-16T23:48:42.331Z,56.60
2017-11-16T23:50:45.109Z,58.93
2017-11-16T23:52:47.778Z,61.40
2017-11-16T23:54:50.447Z,58.87
2017-11-16T23:56:53.133Z,58.93
2017-11-16T23:58:55.800Z,59.87
